createdAt,value
2018-07-23T00:00:52.750Z,15.83
2018-07-23T00:02:55.884Z,15.73
2018-07-23T00:04:59.116Z,16.17
2018-07-23T00:07:02.256Z,15.23
2018-07-23T00:09:06.788Z,13.53
2018-07-23T00:11:09.960Z,14.80
2018-07-23T00:13:13.190Z,15.53
2018-07-23T00:15:16.648Z,16.43
2018-07-23T00:17:19.795Z,15.80
2018-07-23T00:19:22.936Z,16.67
2018-07-23T00:21:26.083Z,17.13
2018-07-23T00:23:29.231Z,17.00
2018-07-23T00:25:32.367Z,17.50
2018-07-23T00:27:35.495Z,17.27
2018-07-23T00:29:39.284Z,14.67
2018-07-23T00:31:42.438Z,16.60
2018-07-23T00:33:45.571Z,16.50
2018-07-23T00:35:48.708Z,16.50
2018-07-23T00:37:51.837Z,17.10
2018-07-23T00:39:54.763Z,15.40
2018-07-23T00:41:57.723Z,17.93
2018-07-23T00:44:01.214Z,16.10
2018-07-23T00:46:04.147Z,18.30
2018-07-23T00:48:07.159Z,17.00
2018-07-23T00:50:10.075Z,17.93
2018-07-23T00:52:12.978Z,15.10
2018-07-23T00:54:15.907Z,15.27
2018-07-23T00:56:18.883Z,16.70
2018-07-23T00:58:21.789Z,15.80
2018-07-23T01:00:24.695Z,15.23
2018-07-23T01:02:27.626Z,15.30
2018-07-23T01:04:30.551Z,16.70
2018-07-23T01:06:33.480Z,14.83
2018-07-23T01:08:36.474Z,16.57
2018-07-23T01:10:39.455Z,15.60
2018-07-23T01:12:42.435Z,16.57
2018-07-23T01:14:45.343Z,15.67
2018-07-23T01:16:48.266Z,14.57
2018-07-23T01:18:51.179Z,14.20
2018-07-23T01:20:54.082Z,15.23
2018-07-23T01:22:57.034Z,14.73
2018-07-23T01:24:59.934Z,16.97
2018-07-23T01:27:02.899Z,14.80
2018-07-23T01:29:05.850Z,15.33
2018-07-23T01:31:08.759Z,15.17
2018-07-23T01:33:11.655Z,14.70
2018-07-23T01:35:14.631Z,15.13
2018-07-23T01:37:18.023Z,15.60
2018-07-23T01:39:20.939Z,15.20
2018-07-23T01:41:23.851Z,16.53
2018-07-23T01:43:27.630Z,16.50
2018-07-23T01:45:30.568Z,16.30
2018-07-23T01:47:33.553Z,16.83
2018-07-23T01:49:36.465Z,14.83
2018-07-23T01:51:40.062Z,16.07
2018-07-23T01:53:42.990Z,15.00
2018-07-23T01:55:45.993Z,16.07
2018-07-23T01:57:48.968Z,15.57
2018-07-23T01:59:52.885Z,16.87
2018-07-23T02:01:55.798Z,15.50
2018-07-23T02:03:58.695Z,15.60
2018-07-23T02:06:01.608Z,17.90
2018-07-23T02:08:04.491Z,17.77
2018-07-23T02:10:07.367Z,18.60
2018-07-23T02:12:10.479Z,18.87
2018-07-23T02:14:13.359Z,19.80
2018-07-23T02:16:16.459Z,19.90
2018-07-23T02:18:19.561Z,20.10
2018-07-23T02:20:22.383Z,20.87
2018-07-23T02:22:25.365Z,20.63
2018-07-23T02:24:28.339Z,20.50
2018-07-23T02:26:31.295Z,22.57
2018-07-23T02:28:34.179Z,21.20
2018-07-23T02:30:37.091Z,21.67
2018-07-23T02:32:40.175Z,22.17
2018-07-23T02:34:43.265Z,23.80
2018-07-23T02:36:46.891Z,24.23
2018-07-23T02:38:49.989Z,23.03
2018-07-23T02:40:53.174Z,22.33
2018-07-23T02:42:56.255Z,24.17
2018-07-23T02:44:59.336Z,25.07
2018-07-23T02:47:02.425Z,25.50
2018-07-23T02:49:05.516Z,23.73
2018-07-23T02:51:08.748Z,27.77
2018-07-23T02:53:11.888Z,26.60
2018-07-23T02:55:14.829Z,25.67
2018-07-23T02:57:17.968Z,29.70
2018-07-23T02:59:21.450Z,28.60
2018-07-23T03:01:24.598Z,29.83
2018-07-23T03:03:27.703Z,31.87
2018-07-23T03:05:30.863Z,30.60
2018-07-23T03:07:34.022Z,30.67
2018-07-23T03:09:37.120Z,30.73
2018-07-23T03:11:40.220Z,31.80
2018-07-23T03:13:43.360Z,33.43
2018-07-23T03:15:46.446Z,32.83
2018-07-23T03:17:49.531Z,33.20
2018-07-23T03:19:52.704Z,34.27
2018-07-23T03:21:55.806Z,33.10
2018-07-23T03:23:58.892Z,36.93
2018-07-23T03:26:01.972Z,37.20
2018-07-23T03:28:05.184Z,33.53
2018-07-23T03:30:08.307Z,36.83
2018-07-23T03:32:11.422Z,37.90
2018-07-23T03:34:14.512Z,37.00
2018-07-23T03:36:17.716Z,35.87
2018-07-23T03:38:20.807Z,38.27
2018-07-23T03:40:23.905Z,38.30
2018-07-23T03:42:26.976Z,36.47
2018-07-23T03:44:30.064Z,36.47
2018-07-23T03:46:33.190Z,39.50
2018-07-23T03:48:36.279Z,38.43
2018-07-23T03:50:39.591Z,41.20
2018-07-23T03:52:42.700Z,37.70
2018-07-23T03:54:46.141Z,40.23
2018-07-23T03:56:49.100Z,39.17
2018-07-23T03:58:52.196Z,39.90
2018-07-23T04:00:55.275Z,38.83
2018-07-23T04:02:58.419Z,40.73
2018-07-23T04:05:01.547Z,38.03
2018-07-23T04:07:04.699Z,39.63
2018-07-23T04:09:08.519Z,38.97
2018-07-23T04:11:11.673Z,36.77
2018-07-23T04:13:14.814Z,35.77
2018-07-23T04:15:17.952Z,39.17
2018-07-23T04:17:21.218Z,41.27
2018-07-23T04:19:24.320Z,36.47
2018-07-23T04:21:27.472Z,37.50
2018-07-23T04:23:30.642Z,34.57
2018-07-23T04:25:33.782Z,33.70
2018-07-23T04:27:36.929Z,38.07
2018-07-23T04:29:40.072Z,36.03
2018-07-23T04:31:43.268Z,35.50
2018-07-23T04:33:46.399Z,33.63
2018-07-23T04:35:49.532Z,35.37
2018-07-23T04:37:52.870Z,33.63
2018-07-23T04:39:55.974Z,33.23
2018-07-23T04:41:59.138Z,33.83
2018-07-23T04:44:02.123Z,33.40
2018-07-23T04:46:05.386Z,32.73
2018-07-23T04:48:08.554Z,32.37
2018-07-23T04:50:11.691Z,29.90
2018-07-23T04:52:14.871Z,31.53
2018-07-23T04:54:18.012Z,33.70
2018-07-23T04:56:21.179Z,32.33
2018-07-23T04:58:24.395Z,31.67
2018-07-23T05:00:27.539Z,29.50
2018-07-23T05:02:30.682Z,31.80
2018-07-23T05:04:33.824Z,31.37
2018-07-23T05:06:37.095Z,30.50
2018-07-23T05:08:40.251Z,30.23
2018-07-23T05:10:43.403Z,29.87
2018-07-23T05:12:46.543Z,29.87
2018-07-23T05:14:49.683Z,27.80
2018-07-23T05:16:52.673Z,26.27
2018-07-23T05:18:55.808Z,23.93
2018-07-23T05:20:58.947Z,23.47
2018-07-23T05:23:02.109Z,20.67
2018-07-23T05:25:05.240Z,21.30
2018-07-23T05:27:08.612Z,20.13
2018-07-23T05:29:11.784Z,18.67
2018-07-23T05:31:15.037Z,19.47
2018-07-23T05:33:18.175Z,18.30
2018-07-23T05:35:21.448Z,18.10
2018-07-23T05:37:24.376Z,18.57
2018-07-23T05:39:27.512Z,16.47
2018-07-23T05:41:30.659Z,17.40
2018-07-23T05:43:33.804Z,17.60
2018-07-23T05:45:36.773Z,15.20
2018-07-23T05:47:39.920Z,16.90
2018-07-23T05:49:43.079Z,16.10
2018-07-23T05:51:46.049Z,17.07
2018-07-23T05:53:49.196Z,14.50
2018-07-23T05:55:52.332Z,15.37
2018-07-23T05:57:55.588Z,15.33
2018-07-23T05:59:58.729Z,13.97
2018-07-23T06:02:01.896Z,13.97
2018-07-23T06:04:05.119Z,15.20
2018-07-23T06:06:08.264Z,14.37
2018-07-23T06:08:12.229Z,13.33
2018-07-23T06:10:15.431Z,15.00
2018-07-23T06:12:18.639Z,13.70
2018-07-23T06:14:21.772Z,13.63
2018-07-23T06:16:24.919Z,13.70
2018-07-23T06:18:27.848Z,11.40
2018-07-23T06:20:31.059Z,12.60
2018-07-23T06:22:34.215Z,13.10
2018-07-23T06:24:37.396Z,12.37
2018-07-23T06:26:40.537Z,12.47
2018-07-23T06:28:43.700Z,12.73
2018-07-23T06:30:46.823Z,11.13
2018-07-23T06:32:49.972Z,11.30
2018-07-23T06:34:53.170Z,9.97
2018-07-23T06:36:56.299Z,11.20
2018-07-23T06:38:59.487Z,10.93
2018-07-23T06:41:02.624Z,10.27
2018-07-23T06:43:05.788Z,10.23
2018-07-23T06:45:08.987Z,11.47
2018-07-23T06:47:12.244Z,11.23
2018-07-23T06:49:15.399Z,10.17
2018-07-23T06:51:18.764Z,9.47
2018-07-23T06:53:21.924Z,9.60
2018-07-23T06:55:25.048Z,9.27
2018-07-23T06:57:28.237Z,10.60
2018-07-23T06:59:31.343Z,9.77
2018-07-23T07:01:34.476Z,11.43
2018-07-23T07:03:37.587Z,11.90
2018-07-23T07:05:40.467Z,14.13
2018-07-23T07:07:43.447Z,15.20
2018-07-23T07:09:46.534Z,15.70
2018-07-23T07:11:49.610Z,14.20
2018-07-23T07:13:52.607Z,16.37
2018-07-23T07:15:55.571Z,17.47
2018-07-23T07:17:58.471Z,15.97
2018-07-23T07:20:01.648Z,15.90
2018-07-23T07:22:04.519Z,14.93
2018-07-23T07:24:07.632Z,17.23
2018-07-23T07:26:10.515Z,17.10
2018-07-23T07:28:13.488Z,16.10
2018-07-23T07:30:16.553Z,16.40
2018-07-23T07:32:19.450Z,16.13
2018-07-23T07:34:22.339Z,16.63
2018-07-23T07:36:25.441Z,14.97
2018-07-23T07:38:28.375Z,16.60
2018-07-23T07:40:31.371Z,15.00
2018-07-23T07:42:34.267Z,14.70
2018-07-23T07:44:37.223Z,14.63
2018-07-23T07:46:40.835Z,14.80
2018-07-23T07:48:43.967Z,14.60
2018-07-23T07:50:47.049Z,15.50
2018-07-23T07:52:49.928Z,17.17
2018-07-23T07:54:52.824Z,15.37
2018-07-23T07:56:55.919Z,12.23
2018-07-23T07:58:58.845Z,11.50
2018-07-23T08:01:02.923Z,15.20
2018-07-23T08:03:06.015Z,12.27
2018-07-23T08:05:09.100Z,13.67
2018-07-23T08:07:12.259Z,14.57
2018-07-23T08:09:15.163Z,13.30
2018-07-23T08:11:18.271Z,11.47
2018-07-23T08:13:21.156Z,12.77
2018-07-23T08:15:24.241Z,10.70
2018-07-23T08:17:27.327Z,11.70
2018-07-23T08:19:30.435Z,12.30
2018-07-23T08:21:33.546Z,11.90
2018-07-23T08:23:36.655Z,12.73
2018-07-23T08:25:39.747Z,11.07
2018-07-23T08:27:42.864Z,10.70
2018-07-23T08:29:45.966Z,11.23
2018-07-23T08:31:48.972Z,10.57
2018-07-23T08:33:51.776Z,10.17
2018-07-23T08:35:54.659Z,10.80
2018-07-23T08:37:57.540Z,10.77
2018-07-23T08:40:00.503Z,8.70
2018-07-23T08:42:03.406Z,9.73
2018-07-23T08:44:06.543Z,9.00
2018-07-23T08:46:09.424Z,7.40
2018-07-23T08:48:12.322Z,8.20
2018-07-23T08:50:15.419Z,9.17
2018-07-23T08:52:18.551Z,7.87
2018-07-23T08:54:21.653Z,7.80
2018-07-23T08:56:24.734Z,8.20
2018-07-23T08:58:27.823Z,7.93
2018-07-23T09:00:30.916Z,7.13
2018-07-23T09:02:34.231Z,7.93
2018-07-23T09:04:37.483Z,8.43
2018-07-23T09:06:40.387Z,9.40
2018-07-23T09:08:43.493Z,8.60
2018-07-23T09:10:46.525Z,6.80
2018-07-23T09:12:49.700Z,7.07
2018-07-23T09:14:52.843Z,6.90
2018-07-23T09:16:55.976Z,5.57
2018-07-23T09:18:59.115Z,5.60
2018-07-23T09:21:02.237Z,6.10
2018-07-23T09:23:05.430Z,6.07
2018-07-23T09:25:08.556Z,5.33
2018-07-23T09:27:11.687Z,6.10
2018-07-23T09:29:14.643Z,5.50
2018-07-23T09:31:17.784Z,6.43
2018-07-23T09:33:22.123Z,5.07
2018-07-23T09:35:25.264Z,5.00
2018-07-23T09:37:28.395Z,5.23
2018-07-23T09:39:31.527Z,5.97
2018-07-23T09:41:34.663Z,6.20
2018-07-23T09:43:37.799Z,5.37
2018-07-23T09:45:40.944Z,4.70
2018-07-23T09:47:44.431Z,3.47
2018-07-23T09:49:47.556Z,4.17
2018-07-23T09:51:50.689Z,4.33
2018-07-23T09:53:53.849Z,5.30
2018-07-23T09:55:56.999Z,4.10
2018-07-23T09:58:00.132Z,5.13
2018-07-23T10:00:03.055Z,4.23
2018-07-23T10:02:06.188Z,3.70
2018-07-23T10:04:09.285Z,4.07
2018-07-23T10:06:12.371Z,4.30
2018-07-23T10:08:15.452Z,4.47
2018-07-23T10:10:18.560Z,3.97
2018-07-23T10:12:21.651Z,4.47
2018-07-23T10:14:24.734Z,4.03
2018-07-23T10:16:27.831Z,3.70
2018-07-23T10:18:30.907Z,3.37
2018-07-23T10:20:33.991Z,3.70
2018-07-23T10:22:37.083Z,4.40
2018-07-23T10:24:40.176Z,3.50
2018-07-23T10:26:43.271Z,2.90
2018-07-23T10:28:46.241Z,3.80
2018-07-23T10:30:49.319Z,2.60
2018-07-23T10:32:52.433Z,3.30
2018-07-23T10:34:55.516Z,3.23
2018-07-23T10:36:58.599Z,3.53
2018-07-23T10:39:01.719Z,2.90
2018-07-23T10:41:04.843Z,3.60
2018-07-23T10:43:08.076Z,3.47
2018-07-23T10:45:11.171Z,3.10
2018-07-23T10:47:14.280Z,3.93
2018-07-23T10:49:17.371Z,3.97
2018-07-23T10:51:20.475Z,3.07
2018-07-23T10:53:23.579Z,3.33
2018-07-23T10:55:26.693Z,3.13
2018-07-23T10:57:29.623Z,2.50
2018-07-23T10:59:32.723Z,3.00
2018-07-23T11:01:35.803Z,2.80
2018-07-23T11:03:38.955Z,3.63
2018-07-23T11:05:42.109Z,3.80
2018-07-23T11:07:45.236Z,3.97
2018-07-23T11:09:48.529Z,3.40
2018-07-23T11:11:51.668Z,2.80
2018-07-23T11:13:54.801Z,3.40
2018-07-23T11:15:57.707Z,2.97
2018-07-23T11:18:00.830Z,2.40
2018-07-23T11:20:04.443Z,3.00
2018-07-23T11:22:07.592Z,3.10
2018-07-23T11:24:10.738Z,3.97
2018-07-23T11:26:13.920Z,3.00
2018-07-23T11:28:17.032Z,3.27
2018-07-23T11:30:20.163Z,3.40
2018-07-23T11:32:23.312Z,3.20
2018-07-23T11:34:26.275Z,3.13
2018-07-23T11:36:29.470Z,3.60
2018-07-23T11:38:32.560Z,3.30
2018-07-23T11:40:35.691Z,3.00
2018-07-23T11:42:38.865Z,3.07
2018-07-23T11:44:41.955Z,3.27
2018-07-23T11:46:45.204Z,3.07
2018-07-23T11:48:48.360Z,4.47
2018-07-23T11:50:51.294Z,3.53
2018-07-23T11:52:54.190Z,3.07
2018-07-23T11:54:57.312Z,3.70
2018-07-23T11:57:00.500Z,3.50
2018-07-23T11:59:03.602Z,3.03
2018-07-23T12:01:06.904Z,2.90
2018-07-23T12:03:09.982Z,3.30
2018-07-23T12:05:13.056Z,2.90
2018-07-23T12:07:16.147Z,3.57
2018-07-23T12:09:19.276Z,3.33
2018-07-23T12:11:22.346Z,3.10
2018-07-23T12:13:25.431Z,3.60
2018-07-23T12:15:28.534Z,3.80
2018-07-23T12:17:31.650Z,4.03
2018-07-23T12:19:34.715Z,2.97
2018-07-23T12:21:37.810Z,2.97
2018-07-23T12:23:40.912Z,2.77
2018-07-23T12:25:43.993Z,3.27
2018-07-23T12:27:47.080Z,4.00
2018-07-23T12:29:51.184Z,3.17
2018-07-23T12:31:54.299Z,2.87
2018-07-23T12:33:57.379Z,3.37
2018-07-23T12:36:00.347Z,3.70
2018-07-23T12:38:03.436Z,2.30
2018-07-23T12:40:06.744Z,2.70
2018-07-23T12:42:09.795Z,3.20
2018-07-23T12:44:12.882Z,2.50
2018-07-23T12:46:15.991Z,3.17
2018-07-23T12:48:18.963Z,2.90
2018-07-23T12:50:22.048Z,2.97
2018-07-23T12:52:25.148Z,3.17
2018-07-23T12:54:28.236Z,2.93
2018-07-23T12:56:31.196Z,3.17
2018-07-23T12:58:34.275Z,3.17
2018-07-23T13:00:37.258Z,3.23
2018-07-23T13:02:40.248Z,2.80
2018-07-23T13:04:43.387Z,2.83
2018-07-23T13:06:46.523Z,3.30
2018-07-23T13:08:49.663Z,2.30
2018-07-23T13:10:52.797Z,3.10
2018-07-23T13:12:55.775Z,2.90
2018-07-23T13:14:59.234Z,2.50
2018-07-23T13:17:02.494Z,3.10
2018-07-23T13:19:05.666Z,3.40
2018-07-23T13:21:09.447Z,2.10
2018-07-23T13:23:12.583Z,2.20
2018-07-23T13:25:15.479Z,2.40
2018-07-23T13:27:18.637Z,2.80
2018-07-23T13:29:21.683Z,2.17
2018-07-23T13:31:24.655Z,2.60
2018-07-23T13:33:27.839Z,2.73
2018-07-23T13:35:30.968Z,2.20
2018-07-23T13:37:34.104Z,1.80
2018-07-23T13:39:37.244Z,2.67
2018-07-23T13:41:40.480Z,3.10
2018-07-23T13:43:43.634Z,2.60
2018-07-23T13:45:46.755Z,3.03
2018-07-23T13:47:49.747Z,2.40
2018-07-23T13:49:52.875Z,2.80
2018-07-23T13:51:56.044Z,2.50
2018-07-23T13:53:59.175Z,2.70
2018-07-23T13:56:02.296Z,2.40
2018-07-23T13:58:05.427Z,2.67
2018-07-23T14:00:08.555Z,2.17
2018-07-23T14:02:11.759Z,2.50
2018-07-23T14:04:14.872Z,2.60
2018-07-23T14:06:17.935Z,2.10
2018-07-23T14:08:21.025Z,2.87
2018-07-23T14:10:24.117Z,2.77
2018-07-23T14:12:27.204Z,2.60
2018-07-23T14:14:30.288Z,2.57
2018-07-23T14:16:33.523Z,2.10
2018-07-23T14:18:36.604Z,2.80
2018-07-23T14:20:39.687Z,2.13
2018-07-23T14:22:42.813Z,2.30
2018-07-23T14:24:45.879Z,2.70
2018-07-23T14:26:48.963Z,1.80
2018-07-23T14:28:52.121Z,1.83
2018-07-23T14:30:55.207Z,2.80
2018-07-23T14:32:58.291Z,2.20
2018-07-23T14:35:01.388Z,2.40
2018-07-23T14:37:04.659Z,2.27
2018-07-23T14:39:11.247Z,2.00
2018-07-23T14:41:14.324Z,2.10
2018-07-23T14:43:17.446Z,1.80
2018-07-23T14:45:20.551Z,2.20
2018-07-23T14:47:23.659Z,2.07
2018-07-23T14:49:27.028Z,2.17
2018-07-23T14:51:30.268Z,1.83
2018-07-23T14:53:33.462Z,1.90
2018-07-23T14:55:36.544Z,2.37
2018-07-23T14:57:39.685Z,1.87
2018-07-23T14:59:42.539Z,2.30
2018-07-23T15:01:45.611Z,1.93
2018-07-23T15:03:48.591Z,2.00
2018-07-23T15:05:51.686Z,2.03
2018-07-23T15:07:54.771Z,1.97
2018-07-23T15:09:57.848Z,2.03
2018-07-23T15:12:00.960Z,2.00
2018-07-23T15:14:03.855Z,2.00
2018-07-23T15:16:07.083Z,2.33
2018-07-23T15:18:10.153Z,2.13
2018-07-23T15:20:13.052Z,1.80
2018-07-23T15:22:16.185Z,2.00
2018-07-23T15:24:19.228Z,2.43
2018-07-23T15:26:22.303Z,2.03
2018-07-23T15:28:25.287Z,1.70
2018-07-23T15:30:28.155Z,1.60
2018-07-23T15:32:31.242Z,1.87
2018-07-23T15:34:34.139Z,1.70
2018-07-23T15:36:37.228Z,2.07
2018-07-23T15:38:40.174Z,1.87
2018-07-23T15:40:43.171Z,2.13
2018-07-23T15:42:46.336Z,2.23
2018-07-23T15:44:49.430Z,2.23
2018-07-23T15:46:52.319Z,2.60
2018-07-23T15:48:55.395Z,2.80
2018-07-23T15:50:58.347Z,1.93
2018-07-23T15:53:01.445Z,1.80
2018-07-23T15:55:04.602Z,2.47
2018-07-23T15:57:07.771Z,2.13
2018-07-23T15:59:10.869Z,1.97
2018-07-23T16:01:13.821Z,1.77
2018-07-23T16:03:16.903Z,2.00
2018-07-23T16:05:20.058Z,1.50
2018-07-23T16:07:23.083Z,2.03
2018-07-23T16:09:26.176Z,2.00
2018-07-23T16:11:29.276Z,2.00
2018-07-23T16:13:32.364Z,2.23
2018-07-23T16:15:35.524Z,2.40
2018-07-23T16:17:38.901Z,2.00
2018-07-23T16:19:41.992Z,1.97
2018-07-23T16:21:45.104Z,2.00
2018-07-23T16:23:48.200Z,1.73
2018-07-23T16:25:52.185Z,2.20
2018-07-23T16:27:55.269Z,2.17
2018-07-23T16:29:58.375Z,2.10
2018-07-23T16:32:01.640Z,2.10
2018-07-23T16:34:04.751Z,2.00
2018-07-23T16:36:07.819Z,2.60
2018-07-23T16:38:10.924Z,2.30
2018-07-23T16:40:13.998Z,2.20
2018-07-23T16:42:17.995Z,2.90
2018-07-23T16:44:21.079Z,2.10
2018-07-23T16:46:24.209Z,2.53
2018-07-23T16:48:27.242Z,2.50
2018-07-23T16:50:30.350Z,2.17
2018-07-23T16:52:33.308Z,1.80
2018-07-23T16:54:36.371Z,2.33
2018-07-23T16:56:39.464Z,2.43
2018-07-23T16:58:42.539Z,3.00
2018-07-23T17:00:45.628Z,2.50
2018-07-23T17:02:49.235Z,2.60
2018-07-23T17:04:52.379Z,2.27
2018-07-23T17:06:55.537Z,2.10
2018-07-23T17:08:58.655Z,2.43
2018-07-23T17:11:02.408Z,2.60
2018-07-23T17:13:05.500Z,2.53
2018-07-23T17:15:08.655Z,2.50
2018-07-23T17:17:11.799Z,2.60
2018-07-23T17:19:14.931Z,1.90
2018-07-23T17:21:18.079Z,2.00
2018-07-23T17:23:21.263Z,2.70
2018-07-23T17:25:24.395Z,2.10
2018-07-23T17:27:27.547Z,2.93
2018-07-23T17:29:30.864Z,2.73
2018-07-23T17:31:33.999Z,2.27
2018-07-23T17:33:37.131Z,2.10
2018-07-23T17:35:40.315Z,2.57
2018-07-23T17:37:43.417Z,2.77
2018-07-23T17:39:46.543Z,2.33
2018-07-23T17:41:49.680Z,2.40
2018-07-23T17:43:52.843Z,2.43
2018-07-23T17:45:55.998Z,2.67
2018-07-23T17:47:59.131Z,2.57
2018-07-23T17:50:02.268Z,2.13
2018-07-23T17:52:05.456Z,2.80
2018-07-23T17:54:08.691Z,2.37
2018-07-23T17:56:11.829Z,2.80
2018-07-23T17:58:14.758Z,2.57
2018-07-23T18:00:17.748Z,2.17
2018-07-23T18:02:20.639Z,2.03
2018-07-23T18:04:23.626Z,2.50
2018-07-23T18:06:26.549Z,2.13
2018-07-23T18:08:29.483Z,2.87
2018-07-23T18:10:32.465Z,2.20
2018-07-23T18:12:35.338Z,2.47
2018-07-23T18:14:38.415Z,2.70
2018-07-23T18:16:41.452Z,2.10
2018-07-23T18:18:44.535Z,2.27
2018-07-23T18:20:47.615Z,2.23
2018-07-23T18:22:50.729Z,2.30
2018-07-23T18:24:53.804Z,1.60
2018-07-23T18:26:56.892Z,2.10
2018-07-23T18:28:59.975Z,2.97
2018-07-23T18:31:03.092Z,1.93
2018-07-23T18:33:06.159Z,1.97
2018-07-23T18:35:09.295Z,2.60
2018-07-23T18:37:12.325Z,2.17
2018-07-23T18:39:15.322Z,2.10
2018-07-23T18:41:18.511Z,1.90
2018-07-23T18:43:21.693Z,1.83
2018-07-23T18:45:24.775Z,2.00
2018-07-23T18:47:27.848Z,1.60
2018-07-23T18:49:43.640Z,2.20
2018-07-23T18:51:49.511Z,2.47
2018-07-23T18:53:52.634Z,2.10
2018-07-23T18:55:55.732Z,2.10
2018-07-23T18:57:58.747Z,2.97
2018-07-23T19:00:01.678Z,2.00
2018-07-23T19:02:06.147Z,2.60
2018-07-23T19:04:09.551Z,2.57
2018-07-23T19:06:12.663Z,2.43
2018-07-23T19:08:15.606Z,3.00
2018-07-23T19:10:18.692Z,2.60
2018-07-23T19:12:21.787Z,2.37
2018-07-23T19:14:24.901Z,2.47
2018-07-23T19:16:27.835Z,3.30
2018-07-23T19:18:30.921Z,2.83
2018-07-23T19:20:33.938Z,2.77
2018-07-23T19:22:36.907Z,3.80
2018-07-23T19:24:39.790Z,3.27
2018-07-23T19:26:42.877Z,3.80
2018-07-23T19:28:45.743Z,3.27
2018-07-23T19:30:48.828Z,4.30
2018-07-23T19:32:51.810Z,3.33
2018-07-23T19:34:54.887Z,4.00
2018-07-23T19:36:57.983Z,2.53
2018-07-23T19:39:01.359Z,4.17
2018-07-23T19:41:04.478Z,5.07
2018-07-23T19:43:07.523Z,5.87
2018-07-23T19:45:10.619Z,4.53
2018-07-23T19:47:13.693Z,5.00
2018-07-23T19:49:16.804Z,4.50
2018-07-23T19:51:19.875Z,3.70
2018-07-23T19:53:23.801Z,3.80
2018-07-23T19:55:26.874Z,4.97
2018-07-23T19:57:29.971Z,4.87
2018-07-23T19:59:33.069Z,4.13
2018-07-23T20:01:36.167Z,3.70
2018-07-23T20:03:39.403Z,4.60
2018-07-23T20:05:42.551Z,4.67
2018-07-23T20:07:45.679Z,3.77
2018-07-23T20:09:48.829Z,4.70
2018-07-23T20:11:51.964Z,4.60
2018-07-23T20:13:55.113Z,5.17
2018-07-23T20:15:58.292Z,4.07
2018-07-23T20:18:02.295Z,4.90
2018-07-23T20:20:06.499Z,4.37
2018-07-23T20:22:09.623Z,4.80
2018-07-23T20:24:12.782Z,5.07
2018-07-23T20:26:15.919Z,5.03
2018-07-23T20:28:19.116Z,4.80
2018-07-23T20:30:22.220Z,5.83
2018-07-23T20:32:25.364Z,5.90
2018-07-23T20:34:28.536Z,5.20
2018-07-23T20:36:31.700Z,5.17
2018-07-23T20:38:35.213Z,6.37
2018-07-23T20:40:38.420Z,4.70
2018-07-23T20:42:41.504Z,4.77
2018-07-23T20:44:44.676Z,5.30
2018-07-23T20:46:47.815Z,4.43
2018-07-23T20:48:51.202Z,4.40
2018-07-23T20:50:54.559Z,4.67
2018-07-23T20:52:57.708Z,4.50
2018-07-23T20:55:00.927Z,5.20
2018-07-23T20:57:04.067Z,4.60
2018-07-23T20:59:07.305Z,4.53
2018-07-23T21:01:10.457Z,5.60
2018-07-23T21:03:13.519Z,4.70
2018-07-23T21:05:16.631Z,4.40
2018-07-23T21:07:19.723Z,4.93
2018-07-23T21:09:22.812Z,4.90
2018-07-23T21:11:25.899Z,4.70
2018-07-23T21:13:29.002Z,5.10
2018-07-23T21:15:32.090Z,5.27
2018-07-23T21:17:35.212Z,5.87
2018-07-23T21:19:38.353Z,5.00
2018-07-23T21:21:41.384Z,5.90
2018-07-23T21:23:44.480Z,5.00
2018-07-23T21:25:47.564Z,5.10
2018-07-23T21:27:50.684Z,6.77
2018-07-23T21:29:53.756Z,6.27
2018-07-23T21:31:56.835Z,6.37
2018-07-23T21:33:59.941Z,5.40
2018-07-23T21:36:03.020Z,6.40
2018-07-23T21:38:06.127Z,5.40
2018-07-23T21:40:09.899Z,6.83
2018-07-23T21:42:13.004Z,6.17
2018-07-23T21:44:16.124Z,5.43
2018-07-23T21:46:19.209Z,5.87
2018-07-23T21:48:22.311Z,6.03
2018-07-23T21:50:25.491Z,6.53
2018-07-23T21:52:28.569Z,7.20
2018-07-23T21:54:31.671Z,6.70
2018-07-23T21:56:34.891Z,6.03
2018-07-23T21:58:37.979Z,6.40
2018-07-23T22:00:41.086Z,5.80
2018-07-23T22:02:44.178Z,6.57
2018-07-23T22:04:47.240Z,6.00
2018-07-23T22:06:50.323Z,7.90
2018-07-23T22:08:55.068Z,6.03
2018-07-23T22:10:58.153Z,7.50
2018-07-23T22:13:01.166Z,5.83
2018-07-23T22:15:05.981Z,6.37
2018-07-23T22:17:09.089Z,6.90
2018-07-23T22:19:12.213Z,8.17
2018-07-23T22:21:15.297Z,7.17
2018-07-23T22:23:18.566Z,7.67
2018-07-23T22:25:21.707Z,6.73
2018-07-23T22:27:24.747Z,7.40
2018-07-23T22:29:27.847Z,7.20
2018-07-23T22:31:30.936Z,7.37
2018-07-23T22:33:34.032Z,6.57
2018-07-23T22:35:37.109Z,7.40
2018-07-23T22:37:40.215Z,6.70
2018-07-23T22:39:43.159Z,7.77
2018-07-23T22:41:46.255Z,6.77
2018-07-23T22:43:49.351Z,6.70
2018-07-23T22:45:52.467Z,6.93
2018-07-23T22:47:55.390Z,7.57
2018-07-23T22:49:58.475Z,6.87
2018-07-23T22:52:01.571Z,7.43
2018-07-23T22:54:04.667Z,7.03
2018-07-23T22:56:07.631Z,7.50
2018-07-23T22:58:10.604Z,7.03
2018-07-23T23:00:13.483Z,7.83
2018-07-23T23:02:16.463Z,7.33
2018-07-23T23:04:19.367Z,6.37
2018-07-23T23:06:22.335Z,7.00
2018-07-23T23:08:25.231Z,7.90
2018-07-23T23:10:28.206Z,7.67
2018-07-23T23:12:31.103Z,7.30
2018-07-23T23:14:34.055Z,7.10
2018-07-23T23:16:37.031Z,6.23
2018-07-23T23:18:39.934Z,6.93
2018-07-23T23:20:42.862Z,6.90
2018-07-23T23:22:45.792Z,6.70
2018-07-23T23:24:48.694Z,7.47
2018-07-23T23:26:51.970Z,6.90
2018-07-23T23:28:54.931Z,7.40
2018-07-23T23:30:57.915Z,6.90
2018-07-23T23:33:00.906Z,7.23
2018-07-23T23:35:04.110Z,8.27
2018-07-23T23:37:07.180Z,6.83
2018-07-23T23:39:11.581Z,7.47
2018-07-23T23:41:14.714Z,6.70
2018-07-23T23:43:17.856Z,8.27
2018-07-23T23:45:21.003Z,7.77
2018-07-23T23:47:24.132Z,7.00
2018-07-23T23:49:27.259Z,8.77
2018-07-23T23:51:30.409Z,7.17
2018-07-23T23:53:33.386Z,7.60
2018-07-23T23:55:36.287Z,6.63
2018-07-23T23:57:39.252Z,7.17
2018-07-23T23:59:42.152Z,8.37
